sensor_id;sensor_type;location;lat;lon;timestamp;P1;durP1;ratioP1;P2;durP2;ratioP2
42066;SDS011;27734;47.028;28.820;2023-04-01T00:01:46;73.33;;;41.30;;
42066;SDS011;27734;47.028;28.820;2023-04-01T00:04:18;72.33;;;42.20;;
42066;SDS011;27734;47.028;28.820;2023-04-01T00:06:49;64.33;;;38.40;;
42066;SDS011;27734;47.028;28.820;2023-04-01T00:09:20;63.33;;;36.70;;
42066;SDS011;27734;47.028;28.820;2023-04-01T00:11:52;59.67;;;35.80;;
42066;SDS011;27734;47.028;28.820;2023-04-01T00:14:23;64.30;;;36.67;;
42066;SDS011;27734;47.028;28.820;2023-04-01T00:16:54;59.10;;;34.83;;
42066;SDS011;27734;47.028;28.820;2023-04-01T00:19:25;60.30;;;35.23;;
42066;SDS011;27734;47.028;28.820;2023-04-01T00:21:57;57.53;;;35.00;;
42066;SDS011;27734;47.028;28.820;2023-04-01T00:24:29;61.60;;;35.43;;
42066;SDS011;27734;47.028;28.820;2023-04-01T00:27:03;62.07;;;36.90;;
42066;SDS011;27734;47.028;28.820;2023-04-01T00:29:35;66.40;;;35.50;;
42066;SDS011;27734;47.028;28.820;2023-04-01T00:32:07;59.27;;;35.17;;
42066;SDS011;27734;47.028;28.820;2023-04-01T00:34:38;61.87;;;34.90;;
42066;SDS011;27734;47.028;28.820;2023-04-01T00:37:10;63.37;;;34.73;;
42066;SDS011;27734;47.028;28.820;2023-04-01T00:39:41;59.93;;;34.17;;
42066;SDS011;27734;47.028;28.820;2023-04-01T00:42:12;63.30;;;36.47;;
42066;SDS011;27734;47.028;28.820;2023-04-01T00:44:44;60.75;;;34.25;;
42066;SDS011;27734;47.028;28.820;2023-04-01T00:47:17;53.23;;;33.38;;
42066;SDS011;27734;47.028;28.820;2023-04-01T00:49:50;58.10;;;32.63;;
42066;SDS011;27734;47.028;28.820;2023-04-01T00:52:24;56.73;;;33.10;;
42066;SDS011;27734;47.028;28.820;2023-04-01T00:54:56;53.60;;;32.63;;
42066;SDS011;27734;47.028;28.820;2023-04-01T00:57:32;54.93;;;33.07;;
42066;SDS011;27734;47.028;28.820;2023-04-01T01:00:08;53.20;;;29.27;;
42066;SDS011;27734;47.028;28.820;2023-04-01T01:02:58;50.27;;;30.63;;
42066;SDS011;27734;47.028;28.820;2023-04-01T01:05:34;53.55;;;31.95;;
42066;SDS011;27734;47.028;28.820;2023-04-01T01:08:30;53.63;;;31.40;;
42066;SDS011;27734;47.028;28.820;2023-04-01T01:11:10;57.05;;;31.40;;
42066;SDS011;27734;47.028;28.820;2023-04-01T01:13:43;49.63;;;29.40;;
42066;SDS011;27734;47.028;28.820;2023-04-01T01:16:23;52.33;;;30.50;;
42066;SDS011;27734;47.028;28.820;2023-04-01T01:19:00;47.30;;;29.57;;
42066;SDS011;27734;47.028;28.820;2023-04-01T01:24:43;49.30;;;30.07;;
42066;SDS011;27734;47.028;28.820;2023-04-01T01:27:25;48.57;;;29.50;;
42066;SDS011;27734;47.028;28.820;2023-04-01T01:30:02;50.53;;;27.40;;
42066;SDS011;27734;47.028;28.820;2023-04-01T01:35:43;46.90;;;27.37;;
42066;SDS011;27734;47.028;28.820;2023-04-01T01:38:21;53.30;;;26.93;;
42066;SDS011;27734;47.028;28.820;2023-04-01T01:41:01;43.13;;;26.47;;
42066;SDS011;27734;47.028;28.820;2023-04-01T01:43:35;48.70;;;28.27;;
42066;SDS011;27734;47.028;28.820;2023-04-01T01:46:10;50.37;;;26.67;;
42066;SDS011;27734;47.028;28.820;2023-04-01T01:48:44;71.63;;;26.50;;
42066;SDS011;27734;47.028;28.820;2023-04-01T01:51:17;84.70;;;27.40;;
42066;SDS011;27734;47.028;28.820;2023-04-01T01:53:49;63.33;;;25.53;;
42066;SDS011;27734;47.028;28.820;2023-04-01T01:56:22;57.03;;;26.03;;
42066;SDS011;27734;47.028;28.820;2023-04-01T01:58:58;56.83;;;25.40;;
42066;SDS011;27734;47.028;28.820;2023-04-01T02:01:32;61.27;;;25.00;;
42066;SDS011;27734;47.028;28.820;2023-04-01T02:04:13;50.43;;;23.80;;
42066;SDS011;27734;47.028;28.820;2023-04-01T02:06:47;45.88;;;24.27;;
42066;SDS011;27734;47.028;28.820;2023-04-01T02:09:22;75.93;;;24.43;;
42066;SDS011;27734;47.028;28.820;2023-04-01T02:11:55;59.80;;;23.60;;
42066;SDS011;27734;47.028;28.820;2023-04-01T02:14:29;64.47;;;23.33;;
42066;SDS011;27734;47.028;28.820;2023-04-01T02:17:07;81.37;;;20.87;;
42066;SDS011;27734;47.028;28.820;2023-04-01T02:19:43;68.93;;;20.97;;
42066;SDS011;27734;47.028;28.820;2023-04-01T02:22:20;51.97;;;22.17;;
42066;SDS011;27734;47.028;28.820;2023-04-01T02:24:54;58.25;;;21.25;;
42066;SDS011;27734;47.028;28.820;2023-04-01T02:27:30;50.10;;;21.67;;
42066;SDS011;27734;47.028;28.820;2023-04-01T02:30:01;55.63;;;20.80;;
42066;SDS011;27734;47.028;28.820;2023-04-01T02:32:34;51.23;;;21.60;;
42066;SDS011;27734;47.028;28.820;2023-04-01T02:35:08;42.53;;;20.50;;
42066;SDS011;27734;47.028;28.820;2023-04-01T02:37:42;46.60;;;20.10;;
42066;SDS011;27734;47.028;28.820;2023-04-01T02:40:16;50.70;;;19.93;;
42066;SDS011;27734;47.028;28.820;2023-04-01T02:42:48;35.33;;;19.97;;
42066;SDS011;27734;47.028;28.820;2023-04-01T02:45:20;38.37;;;20.03;;
42066;SDS011;27734;47.028;28.820;2023-04-01T02:47:51;34.80;;;18.90;;
42066;SDS011;27734;47.028;28.820;2023-04-01T02:50:22;34.83;;;18.97;;
42066;SDS011;27734;47.028;28.820;2023-04-01T02:52:54;31.77;;;18.57;;
42066;SDS011;27734;47.028;28.820;2023-04-01T02:55:25;32.30;;;18.20;;
42066;SDS011;27734;47.028;28.820;2023-04-01T02:57:56;31.87;;;19.37;;
42066;SDS011;27734;47.028;28.820;2023-04-01T03:00:28;33.93;;;19.07;;
42066;SDS011;27734;47.028;28.820;2023-04-01T03:02:59;33.50;;;18.33;;
42066;SDS011;27734;47.028;28.820;2023-04-01T03:05:31;33.27;;;19.20;;
42066;SDS011;27734;47.028;28.820;2023-04-01T03:08:02;36.00;;;18.10;;
42066;SDS011;27734;47.028;28.820;2023-04-01T03:10:34;34.97;;;19.27;;
42066;SDS011;27734;47.028;28.820;2023-04-01T03:13:05;33.40;;;18.23;;
42066;SDS011;27734;47.028;28.820;2023-04-01T03:15:37;29.43;;;17.77;;
42066;SDS011;27734;47.028;28.820;2023-04-01T03:18:08;31.70;;;18.07;;
42066;SDS011;27734;47.028;28.820;2023-04-01T03:20:40;30.17;;;17.80;;
42066;SDS011;27734;47.028;28.820;2023-04-01T03:23:12;31.53;;;17.57;;
42066;SDS011;27734;47.028;28.820;2023-04-01T03:25:45;31.97;;;17.73;;
42066;SDS011;27734;47.028;28.820;2023-04-01T03:28:17;29.77;;;16.83;;
42066;SDS011;27734;47.028;28.820;2023-04-01T03:30:48;30.00;;;17.53;;
42066;SDS011;27734;47.028;28.820;2023-04-01T03:33:20;30.87;;;17.97;;
42066;SDS011;27734;47.028;28.820;2023-04-01T03:35:51;28.03;;;16.70;;
42066;SDS011;27734;47.028;28.820;2023-04-01T03:38:22;30.03;;;17.50;;
42066;SDS011;27734;47.028;28.820;2023-04-01T03:40:54;31.10;;;16.93;;
42066;SDS011;27734;47.028;28.820;2023-04-01T03:43:25;28.73;;;17.40;;
42066;SDS011;27734;47.028;28.820;2023-04-01T03:45:56;29.00;;;17.37;;
42066;SDS011;27734;47.028;28.820;2023-04-01T03:48:28;29.60;;;16.90;;
42066;SDS011;27734;47.028;28.820;2023-04-01T03:50:59;31.10;;;18.27;;
42066;SDS011;27734;47.028;28.820;2023-04-01T03:53:31;29.70;;;17.57;;
42066;SDS011;27734;47.028;28.820;2023-04-01T03:56:04;30.27;;;18.23;;
42066;SDS011;27734;47.028;28.820;2023-04-01T04:01:18;29.13;;;16.70;;
42066;SDS011;27734;47.028;28.820;2023-04-01T04:03:53;29.40;;;18.10;;
42066;SDS011;27734;47.028;28.820;2023-04-01T04:06:24;28.75;;;17.70;;
42066;SDS011;27734;47.028;28.820;2023-04-01T04:08:56;31.50;;;18.30;;
42066;SDS011;27734;47.028;28.820;2023-04-01T04:11:28;31.07;;;17.57;;
42066;SDS011;27734;47.028;28.820;2023-04-01T04:14:02;28.17;;;16.97;;
42066;SDS011;27734;47.028;28.820;2023-04-01T04:16:33;33.37;;;18.73;;
42066;SDS011;27734;47.028;28.820;2023-04-01T04:19:06;37.53;;;19.43;;
42066;SDS011;27734;47.028;28.820;2023-04-01T04:21:37;31.93;;;19.33;;
42066;SDS011;27734;47.028;28.820;2023-04-01T04:24:08;32.87;;;19.03;;
42066;SDS011;27734;47.028;28.820;2023-04-01T04:27:15;30.67;;;18.10;;
42066;SDS011;27734;47.028;28.820;2023-04-01T04:29:55;31.53;;;18.80;;
42066;SDS011;27734;47.028;28.820;2023-04-01T04:32:27;30.87;;;17.87;;
42066;SDS011;27734;47.028;28.820;2023-04-01T04:34:59;27.10;;;17.47;;
42066;SDS011;27734;47.028;28.820;2023-04-01T04:37:30;28.60;;;17.43;;
42066;SDS011;27734;47.028;28.820;2023-04-01T04:40:01;32.27;;;17.10;;
42066;SDS011;27734;47.028;28.820;2023-04-01T04:42:33;28.13;;;17.00;;
42066;SDS011;27734;47.028;28.820;2023-04-01T04:45:09;29.03;;;16.70;;
42066;SDS011;27734;47.028;28.820;2023-04-01T04:47:44;29.93;;;16.53;;
42066;SDS011;27734;47.028;28.820;2023-04-01T04:50:15;29.20;;;16.90;;
42066;SDS011;27734;47.028;28.820;2023-04-01T04:52:47;28.87;;;16.57;;
42066;SDS011;27734;47.028;28.820;2023-04-01T04:55:19;27.20;;;16.83;;
42066;SDS011;27734;47.028;28.820;2023-04-01T04:58:00;27.80;;;16.33;;
42066;SDS011;27734;47.028;28.820;2023-04-01T05:00:31;25.70;;;16.13;;
42066;SDS011;27734;47.028;28.820;2023-04-01T05:03:06;28.57;;;16.63;;
42066;SDS011;27734;47.028;28.820;2023-04-01T05:05:39;27.93;;;16.00;;
42066;SDS011;27734;47.028;28.820;2023-04-01T05:08:17;28.90;;;16.43;;
42066;SDS011;27734;47.028;28.820;2023-04-01T05:10:48;28.30;;;16.63;;
42066;SDS011;27734;47.028;28.820;2023-04-01T05:13:20;32.33;;;16.80;;
42066;SDS011;27734;47.028;28.820;2023-04-01T05:15:51;27.57;;;16.33;;
42066;SDS011;27734;47.028;28.820;2023-04-01T05:18:22;29.97;;;16.27;;
42066;SDS011;27734;47.028;28.820;2023-04-01T05:20:54;29.03;;;16.90;;
42066;SDS011;27734;47.028;28.820;2023-04-01T05:23:25;27.87;;;16.23;;
42066;SDS011;27734;47.028;28.820;2023-04-01T05:25:57;30.80;;;16.73;;
42066;SDS011;27734;47.028;28.820;2023-04-01T05:28:31;30.57;;;16.53;;
42066;SDS011;27734;47.028;28.820;2023-04-01T05:31:03;28.80;;;17.07;;
42066;SDS011;27734;47.028;28.820;2023-04-01T05:33:38;28.70;;;16.87;;
42066;SDS011;27734;47.028;28.820;2023-04-01T05:36:10;28.30;;;16.77;;
42066;SDS011;27734;47.028;28.820;2023-04-01T05:41:14;27.17;;;15.60;;
42066;SDS011;27734;47.028;28.820;2023-04-01T05:43:47;29.10;;;16.93;;
42066;SDS011;27734;47.028;28.820;2023-04-01T05:46:51;27.93;;;16.43;;
42066;SDS011;27734;47.028;28.820;2023-04-01T05:49:24;28.50;;;16.50;;
42066;SDS011;27734;47.028;28.820;2023-04-01T05:51:55;34.23;;;16.20;;
42066;SDS011;27734;47.028;28.820;2023-04-01T05:54:27;25.23;;;15.07;;
42066;SDS011;27734;47.028;28.820;2023-04-01T05:56:58;26.60;;;14.73;;
42066;SDS011;27734;47.028;28.820;2023-04-01T05:59:31;25.45;;;15.25;;
42066;SDS011;27734;47.028;28.820;2023-04-01T06:02:03;27.23;;;15.50;;
42066;SDS011;27734;47.028;28.820;2023-04-01T06:04:37;25.37;;;14.60;;
42066;SDS011;27734;47.028;28.820;2023-04-01T06:07:13;27.25;;;14.40;;
42066;SDS011;27734;47.028;28.820;2023-04-01T06:09:45;24.77;;;13.80;;
42066;SDS011;27734;47.028;28.820;2023-04-01T06:15:13;24.77;;;14.10;;
42066;SDS011;27734;47.028;28.820;2023-04-01T06:17:59;27.73;;;14.83;;
42066;SDS011;27734;47.028;28.820;2023-04-01T06:20:48;26.53;;;14.47;;
42066;SDS011;27734;47.028;28.820;2023-04-01T06:23:34;25.85;;;15.05;;
42066;SDS011;27734;47.028;28.820;2023-04-01T06:26:19;28.23;;;15.27;;
42066;SDS011;27734;47.028;28.820;2023-04-01T06:29:05;29.40;;;15.67;;
42066;SDS011;27734;47.028;28.820;2023-04-01T06:32:09;27.63;;;16.23;;
42066;SDS011;27734;47.028;28.820;2023-04-01T06:38:09;30.33;;;16.73;;
42066;SDS011;27734;47.028;28.820;2023-04-01T06:41:16;26.17;;;15.57;;
42066;SDS011;27734;47.028;28.820;2023-04-01T06:44:07;27.98;;;15.95;;
42066;SDS011;27734;47.028;28.820;2023-04-01T06:47:07;27.30;;;16.07;;
42066;SDS011;27734;47.028;28.820;2023-04-01T06:50:11;32.07;;;17.03;;
42066;SDS011;27734;47.028;28.820;2023-04-01T06:53:11;30.53;;;16.97;;
42066;SDS011;27734;47.028;28.820;2023-04-01T06:55:57;33.50;;;17.83;;
42066;SDS011;27734;47.028;28.820;2023-04-01T06:58:58;30.00;;;17.87;;
42066;SDS011;27734;47.028;28.820;2023-04-01T07:01:35;30.97;;;17.43;;
42066;SDS011;27734;47.028;28.820;2023-04-01T07:04:11;31.73;;;17.97;;
42066;SDS011;27734;47.028;28.820;2023-04-01T07:06:48;28.87;;;17.17;;
42066;SDS011;27734;47.028;28.820;2023-04-01T07:09:24;32.90;;;18.37;;
42066;SDS011;27734;47.028;28.820;2023-04-01T07:12:18;26.97;;;14.03;;
42066;SDS011;27734;47.028;28.820;2023-04-01T07:15:24;24.73;;;14.77;;
42066;SDS011;27734;47.028;28.820;2023-04-01T07:18:02;22.93;;;12.60;;
42066;SDS011;27734;47.028;28.820;2023-04-01T07:20:39;25.60;;;14.47;;
42066;SDS011;27734;47.028;28.820;2023-04-01T07:23:15;24.03;;;13.63;;
42066;SDS011;27734;47.028;28.820;2023-04-01T07:26:06;24.13;;;13.87;;
42066;SDS011;27734;47.028;28.820;2023-04-01T07:29:04;24.30;;;13.77;;
42066;SDS011;27734;47.028;28.820;2023-04-01T07:34:38;22.50;;;12.80;;
42066;SDS011;27734;47.028;28.820;2023-04-01T07:37:21;24.70;;;12.88;;
42066;SDS011;27734;47.028;28.820;2023-04-01T07:40:00;21.73;;;12.20;;
42066;SDS011;27734;47.028;28.820;2023-04-01T07:42:46;23.25;;;11.25;;
42066;SDS011;27734;47.028;28.820;2023-04-01T07:45:33;18.40;;;10.55;;
42066;SDS011;27734;47.028;28.820;2023-04-01T07:48:14;19.10;;;9.37;;
42066;SDS011;27734;47.028;28.820;2023-04-01T07:50:53;20.87;;;9.97;;
42066;SDS011;27734;47.028;28.820;2023-04-01T07:53:32;21.03;;;10.50;;
42066;SDS011;27734;47.028;28.820;2023-04-01T07:56:08;17.27;;;9.33;;
42066;SDS011;27734;47.028;28.820;2023-04-01T07:58:47;19.37;;;10.20;;
42066;SDS011;27734;47.028;28.820;2023-04-01T08:01:57;18.13;;;9.37;;
42066;SDS011;27734;47.028;28.820;2023-04-01T08:04:40;18.40;;;8.97;;
42066;SDS011;27734;47.028;28.820;2023-04-01T08:07:27;18.20;;;9.27;;
42066;SDS011;27734;47.028;28.820;2023-04-01T08:10:28;19.97;;;9.00;;
42066;SDS011;27734;47.028;28.820;2023-04-01T08:13:29;16.20;;;8.77;;
42066;SDS011;27734;47.028;28.820;2023-04-01T08:16:44;16.90;;;8.70;;
42066;SDS011;27734;47.028;28.820;2023-04-01T08:19:27;17.60;;;8.57;;
42066;SDS011;27734;47.028;28.820;2023-04-01T08:22:11;21.47;;;9.20;;
42066;SDS011;27734;47.028;28.820;2023-04-01T08:24:47;19.00;;;8.37;;
42066;SDS011;27734;47.028;28.820;2023-04-01T08:27:26;16.70;;;7.63;;
42066;SDS011;27734;47.028;28.820;2023-04-01T08:30:04;15.70;;;7.83;;
42066;SDS011;27734;47.028;28.820;2023-04-01T08:32:47;16.80;;;8.20;;
42066;SDS011;27734;47.028;28.820;2023-04-01T08:35:26;17.53;;;8.50;;
42066;SDS011;27734;47.028;28.820;2023-04-01T08:38:11;28.30;;;8.70;;
42066;SDS011;27734;47.028;28.820;2023-04-01T08:41:00;16.03;;;7.97;;
42066;SDS011;27734;47.028;28.820;2023-04-01T08:44:04;14.50;;;7.60;;
42066;SDS011;27734;47.028;28.820;2023-04-01T08:46:57;16.27;;;7.97;;
42066;SDS011;27734;47.028;28.820;2023-04-01T08:49:59;15.23;;;7.13;;
42066;SDS011;27734;47.028;28.820;2023-04-01T08:53:00;13.33;;;6.73;;
42066;SDS011;27734;47.028;28.820;2023-04-01T08:55:42;15.20;;;7.03;;
42066;SDS011;27734;47.028;28.820;2023-04-01T09:01:50;16.33;;;7.37;;
42066;SDS011;27734;47.028;28.820;2023-04-01T09:05:01;14.40;;;8.03;;
42066;SDS011;27734;47.028;28.820;2023-04-01T09:07:49;15.87;;;7.87;;
42066;SDS011;27734;47.028;28.820;2023-04-01T09:10:39;16.27;;;7.63;;
42066;SDS011;27734;47.028;28.820;2023-04-01T09:13:49;15.17;;;8.03;;
42066;SDS011;27734;47.028;28.820;2023-04-01T09:19:43;18.37;;;8.93;;
42066;SDS011;27734;47.028;28.820;2023-04-01T09:22:33;16.93;;;8.07;;
42066;SDS011;27734;47.028;28.820;2023-04-01T09:28:17;18.27;;;8.20;;
42066;SDS011;27734;47.028;28.820;2023-04-01T09:31:00;16.13;;;7.87;;
42066;SDS011;27734;47.028;28.820;2023-04-01T09:34:07;16.20;;;8.47;;
42066;SDS011;27734;47.028;28.820;2023-04-01T09:37:19;16.53;;;8.37;;
42066;SDS011;27734;47.028;28.820;2023-04-01T09:40:13;19.87;;;9.40;;
42066;SDS011;27734;47.028;28.820;2023-04-01T09:46:10;16.93;;;8.80;;
42066;SDS011;27734;47.028;28.820;2023-04-01T09:49:02;16.70;;;8.13;;
42066;SDS011;27734;47.028;28.820;2023-04-01T09:54:39;15.00;;;7.90;;
42066;SDS011;27734;47.028;28.820;2023-04-01T10:13:19;15.20;;;7.30;;
42066;SDS011;27734;47.028;28.820;2023-04-01T10:16:20;15.43;;;7.35;;
42066;SDS011;27734;47.028;28.820;2023-04-01T10:19:20;15.83;;;7.17;;
42066;SDS011;27734;47.028;28.820;2023-04-01T10:22:34;14.55;;;7.78;;
42066;SDS011;27734;47.028;28.820;2023-04-01T10:28:49;17.93;;;7.87;;
42066;SDS011;27734;47.028;28.820;2023-04-01T10:31:49;17.83;;;7.77;;
42066;SDS011;27734;47.028;28.820;2023-04-01T10:34:53;15.13;;;7.83;;
42066;SDS011;27734;47.028;28.820;2023-04-01T10:37:44;13.90;;;7.57;;
42066;SDS011;27734;47.028;28.820;2023-04-01T10:43:54;16.60;;;8.80;;
42066;SDS011;27734;47.028;28.820;2023-04-01T10:53:21;17.73;;;8.93;;
42066;SDS011;27734;47.028;28.820;2023-04-01T11:03:21;18.43;;;8.37;;
42066;SDS011;27734;47.028;28.820;2023-04-01T11:07:01;18.30;;;8.60;;
42066;SDS011;27734;47.028;28.820;2023-04-01T11:10:09;18.80;;;10.10;;
42066;SDS011;27734;47.028;28.820;2023-04-01T11:13:12;20.43;;;11.33;;
42066;SDS011;27734;47.028;28.820;2023-04-01T11:19:12;21.77;;;9.80;;
42066;SDS011;27734;47.028;28.820;2023-04-01T11:22:09;16.50;;;8.30;;
42066;SDS011;27734;47.028;28.820;2023-04-01T11:25:07;19.43;;;8.90;;
42066;SDS011;27734;47.028;28.820;2023-04-01T11:28:25;18.23;;;8.30;;
42066;SDS011;27734;47.028;28.820;2023-04-01T11:31:16;15.80;;;8.07;;
42066;SDS011;27734;47.028;28.820;2023-04-01T11:34:14;16.97;;;8.57;;
42066;SDS011;27734;47.028;28.820;2023-04-01T11:37:13;16.03;;;7.77;;
42066;SDS011;27734;47.028;28.820;2023-04-01T11:40:28;17.35;;;8.20;;
42066;SDS011;27734;47.028;28.820;2023-04-01T11:43:32;16.80;;;8.30;;
42066;SDS011;27734;47.028;28.820;2023-04-01T11:46:39;15.07;;;7.20;;
42066;SDS011;27734;47.028;28.820;2023-04-01T11:49:24;14.83;;;7.57;;
42066;SDS011;27734;47.028;28.820;2023-04-01T11:52:22;14.00;;;6.78;;
42066;SDS011;27734;47.028;28.820;2023-04-01T11:55:22;16.30;;;7.30;;
42066;SDS011;27734;47.028;28.820;2023-04-01T12:01:07;15.93;;;7.30;;
42066;SDS011;27734;47.028;28.820;2023-04-01T12:03:54;10.35;;;6.70;;
42066;SDS011;27734;47.028;28.820;2023-04-01T12:06:43;13.05;;;6.67;;
42066;SDS011;27734;47.028;28.820;2023-04-01T12:09:22;14.17;;;6.90;;
42066;SDS011;27734;47.028;28.820;2023-04-01T12:12:07;13.87;;;6.97;;
42066;SDS011;27734;47.028;28.820;2023-04-01T12:14:47;17.17;;;7.70;;
42066;SDS011;27734;47.028;28.820;2023-04-01T12:17:29;13.73;;;7.27;;
42066;SDS011;27734;47.028;28.820;2023-04-01T12:20:26;13.40;;;7.00;;
42066;SDS011;27734;47.028;28.820;2023-04-01T12:23:09;14.27;;;7.17;;
42066;SDS011;27734;47.028;28.820;2023-04-01T12:25:56;17.30;;;7.37;;
42066;SDS011;27734;47.028;28.820;2023-04-01T12:28:48;14.70;;;6.93;;
42066;SDS011;27734;47.028;28.820;2023-04-01T12:31:36;15.20;;;7.30;;
42066;SDS011;27734;47.028;28.820;2023-04-01T12:37:21;15.63;;;7.93;;
42066;SDS011;27734;47.028;28.820;2023-04-01T12:40:13;15.13;;;7.70;;
42066;SDS011;27734;47.028;28.820;2023-04-01T12:43:09;14.30;;;7.50;;
42066;SDS011;27734;47.028;28.820;2023-04-01T12:45:52;13.27;;;7.27;;
42066;SDS011;27734;47.028;28.820;2023-04-01T12:48:34;13.33;;;7.47;;
42066;SDS011;27734;47.028;28.820;2023-04-01T12:51:29;13.47;;;7.13;;
42066;SDS011;27734;47.028;28.820;2023-04-01T12:54:41;13.90;;;7.03;;
42066;SDS011;27734;47.028;28.820;2023-04-01T12:57:32;14.37;;;6.43;;
42066;SDS011;27734;47.028;28.820;2023-04-01T13:00:24;13.43;;;6.50;;
42066;SDS011;27734;47.028;28.820;2023-04-01T13:03:11;13.70;;;6.97;;
42066;SDS011;27734;47.028;28.820;2023-04-01T13:06:10;11.83;;;5.90;;
42066;SDS011;27734;47.028;28.820;2023-04-01T13:09:08;13.13;;;5.87;;
42066;SDS011;27734;47.028;28.820;2023-04-01T13:11:54;12.90;;;6.40;;
42066;SDS011;27734;47.028;28.820;2023-04-01T13:17:36;9.67;;;5.47;;
42066;SDS011;27734;47.028;28.820;2023-04-01T13:20:16;10.50;;;5.13;;
42066;SDS011;27734;47.028;28.820;2023-04-01T13:23:01;10.90;;;5.67;;
42066;SDS011;27734;47.028;28.820;2023-04-01T13:25:42;9.77;;;5.47;;
42066;SDS011;27734;47.028;28.820;2023-04-01T13:28:24;9.95;;;5.05;;
42066;SDS011;27734;47.028;28.820;2023-04-01T13:31:00;10.50;;;5.53;;
42066;SDS011;27734;47.028;28.820;2023-04-01T13:33:39;11.07;;;5.17;;
42066;SDS011;27734;47.028;28.820;2023-04-01T13:36:19;11.90;;;5.67;;
42066;SDS011;27734;47.028;28.820;2023-04-01T13:42:12;13.27;;;6.40;;
42066;SDS011;27734;47.028;28.820;2023-04-01T13:44:53;10.77;;;5.27;;
42066;SDS011;27734;47.028;28.820;2023-04-01T13:47:34;10.87;;;5.63;;
42066;SDS011;27734;47.028;28.820;2023-04-01T13:50:28;9.77;;;5.53;;
42066;SDS011;27734;47.028;28.820;2023-04-01T13:53:15;12.23;;;5.77;;
42066;SDS011;27734;47.028;28.820;2023-04-01T13:56:05;12.50;;;5.83;;
42066;SDS011;27734;47.028;28.820;2023-04-01T14:07:32;15.03;;;5.97;;
42066;SDS011;27734;47.028;28.820;2023-04-01T14:10:20;13.32;;;6.87;;
42066;SDS011;27734;47.028;28.820;2023-04-01T14:13:02;11.60;;;6.42;;
42066;SDS011;27734;47.028;28.820;2023-04-01T14:15:50;12.47;;;6.30;;
42066;SDS011;27734;47.028;28.820;2023-04-01T14:21:49;13.57;;;6.87;;
42066;SDS011;27734;47.028;28.820;2023-04-01T14:24:35;15.40;;;6.83;;
42066;SDS011;27734;47.028;28.820;2023-04-01T14:27:18;14.63;;;7.37;;
42066;SDS011;27734;47.028;28.820;2023-04-01T14:30:08;14.83;;;7.47;;
42066;SDS011;27734;47.028;28.820;2023-04-01T14:32:51;13.30;;;6.50;;
42066;SDS011;27734;47.028;28.820;2023-04-01T14:35:35;14.77;;;7.23;;
42066;SDS011;27734;47.028;28.820;2023-04-01T14:41:13;18.10;;;8.63;;
42066;SDS011;27734;47.028;28.820;2023-04-01T14:44:09;17.63;;;9.13;;
42066;SDS011;27734;47.028;28.820;2023-04-01T14:47:04;20.07;;;9.53;;
42066;SDS011;27734;47.028;28.820;2023-04-01T14:49:55;17.77;;;9.43;;
42066;SDS011;27734;47.028;28.820;2023-04-01T14:52:37;20.03;;;11.03;;
42066;SDS011;27734;47.028;28.820;2023-04-01T14:58:14;19.53;;;9.47;;
42066;SDS011;27734;47.028;28.820;2023-04-01T15:00:50;23.07;;;11.00;;
42066;SDS011;27734;47.028;28.820;2023-04-01T15:03:32;23.63;;;11.03;;
42066;SDS011;27734;47.028;28.820;2023-04-01T15:06:15;23.97;;;10.60;;
42066;SDS011;27734;47.028;28.820;2023-04-01T15:09:06;20.50;;;10.03;;
42066;SDS011;27734;47.028;28.820;2023-04-01T15:11:53;19.23;;;9.37;;
42066;SDS011;27734;47.028;28.820;2023-04-01T15:14:40;19.33;;;9.53;;
42066;SDS011;27734;47.028;28.820;2023-04-01T15:17:24;22.83;;;9.73;;
42066;SDS011;27734;47.028;28.820;2023-04-01T15:20:18;16.60;;;8.77;;
42066;SDS011;27734;47.028;28.820;2023-04-01T15:23:05;22.50;;;10.93;;
42066;SDS011;27734;47.028;28.820;2023-04-01T15:25:48;20.37;;;10.73;;
42066;SDS011;27734;47.028;28.820;2023-04-01T15:28:30;21.97;;;11.57;;
42066;SDS011;27734;47.028;28.820;2023-04-01T15:31:10;19.30;;;10.13;;
42066;SDS011;27734;47.028;28.820;2023-04-01T15:33:50;22.57;;;10.93;;
42066;SDS011;27734;47.028;28.820;2023-04-01T15:36:40;20.47;;;11.47;;
42066;SDS011;27734;47.028;28.820;2023-04-01T15:39:21;19.30;;;10.30;;
42066;SDS011;27734;47.028;28.820;2023-04-01T15:42:07;19.90;;;10.83;;
42066;SDS011;27734;47.028;28.820;2023-04-01T15:44:53;23.40;;;11.70;;
42066;SDS011;27734;47.028;28.820;2023-04-01T15:47:33;20.47;;;11.50;;
42066;SDS011;27734;47.028;28.820;2023-04-01T15:53:21;19.50;;;10.93;;
42066;SDS011;27734;47.028;28.820;2023-04-01T15:56:06;20.90;;;12.13;;
42066;SDS011;27734;47.028;28.820;2023-04-01T15:58:52;21.40;;;12.03;;
42066;SDS011;27734;47.028;28.820;2023-04-01T16:01:38;24.63;;;13.27;;
42066;SDS011;27734;47.028;28.820;2023-04-01T16:04:28;25.87;;;13.97;;
42066;SDS011;27734;47.028;28.820;2023-04-01T16:07:19;25.37;;;13.70;;
42066;SDS011;27734;47.028;28.820;2023-04-01T16:10:21;27.50;;;14.20;;
42066;SDS011;27734;47.028;28.820;2023-04-01T16:13:09;25.50;;;13.93;;
42066;SDS011;27734;47.028;28.820;2023-04-01T16:15:55;28.07;;;14.87;;
42066;SDS011;27734;47.028;28.820;2023-04-01T16:18:42;29.43;;;15.70;;
42066;SDS011;27734;47.028;28.820;2023-04-01T16:21:37;26.17;;;15.47;;
42066;SDS011;27734;47.028;28.820;2023-04-01T16:24:17;26.37;;;14.97;;
42066;SDS011;27734;47.028;28.820;2023-04-01T16:26:54;25.83;;;13.93;;
42066;SDS011;27734;47.028;28.820;2023-04-01T16:29:35;29.93;;;16.30;;
42066;SDS011;27734;47.028;28.820;2023-04-01T16:32:17;28.90;;;15.80;;
42066;SDS011;27734;47.028;28.820;2023-04-01T16:35:01;29.33;;;15.97;;
42066;SDS011;27734;47.028;28.820;2023-04-01T16:37:45;26.23;;;15.57;;
42066;SDS011;27734;47.028;28.820;2023-04-01T16:40:23;24.77;;;15.00;;
42066;SDS011;27734;47.028;28.820;2023-04-01T16:43:10;27.90;;;16.12;;
42066;SDS011;27734;47.028;28.820;2023-04-01T16:45:47;27.37;;;15.83;;
42066;SDS011;27734;47.028;28.820;2023-04-01T16:48:34;29.13;;;16.27;;
42066;SDS011;27734;47.028;28.820;2023-04-01T16:51:15;27.77;;;15.70;;
42066;SDS011;27734;47.028;28.820;2023-04-01T16:53:48;31.20;;;16.93;;
42066;SDS011;27734;47.028;28.820;2023-04-01T16:56:36;29.97;;;16.83;;
42066;SDS011;27734;47.028;28.820;2023-04-01T16:59:15;32.80;;;17.23;;
42066;SDS011;27734;47.028;28.820;2023-04-01T17:01:54;31.70;;;16.47;;
42066;SDS011;27734;47.028;28.820;2023-04-01T17:04:32;29.77;;;16.80;;
42066;SDS011;27734;47.028;28.820;2023-04-01T17:07:14;27.43;;;16.17;;
42066;SDS011;27734;47.028;28.820;2023-04-01T17:12:31;26.17;;;14.80;;
42066;SDS011;27734;47.028;28.820;2023-04-01T17:15:11;30.50;;;15.50;;
42066;SDS011;27734;47.028;28.820;2023-04-01T17:17:51;29.07;;;15.70;;
42066;SDS011;27734;47.028;28.820;2023-04-01T17:20:29;30.00;;;15.70;;
42066;SDS011;27734;47.028;28.820;2023-04-01T17:23:14;27.83;;;15.47;;
42066;SDS011;27734;47.028;28.820;2023-04-01T17:25:58;28.70;;;15.73;;
42066;SDS011;27734;47.028;28.820;2023-04-01T17:28:52;30.03;;;16.07;;
42066;SDS011;27734;47.028;28.820;2023-04-01T17:31:36;30.97;;;17.67;;
42066;SDS011;27734;47.028;28.820;2023-04-01T17:34:33;33.33;;;16.57;;